Главная страница
METAR-TAF:

METAR-TAF

Аэропорты :

Бахрейн, Бахрейн

широта: 26-16N, долгота: 050-39E, высота над уровнем моря: 2 м

Текущие метеонаблюдения

Эта сводка был подготовлена 20 минут назад, в 23:30 UTC
Ветер 3 Узел от северно-северо-западный, изменяющийся между западно-северо-западный и северный
Температура 32°C
Влажность 75%
Давление 1006 hPa
Видимость: 6000 м
ясное небо

METAR: OBBI 212330Z 33003KT 300V360 6000 SKC 32/27 Q1006 NOSIG

Время: 02:50 (23:50 UTC)

Прогноз

Эта сводка был подготовлена 50 минут назад, в 23:00 UTC
Прогноз действительный с 22-го 00 UTC до 23-го 06 UTC
Ветер 5 Узел переменных направлений
Видимость: 7000 м
Вероятность 30% :
временами
С 22-го 00 UTC до 22-го 05 UTC
Видимость: 5000 м
мгла
изменения
С 22-го 09 UTC до 22-го 11 UTC
Ветер 10 Узел от северо-восточный

TAF: OBBI 212300Z 2200/2306 VRB05KT 7000 NSC PROB30 TEMPO 2200/2205 5000 HZ BECMG 2209/2211 04010KT

Метеонаблюдения и прогнозы для более 4000 аэропортов (сводки METAR и TAF).

Имеющиеся станции представлены на карте желтыми и красными точками.

Чтобы увидеть название станции, наведите на нее мышь.

Затем щелкните, чтобы увидеть метеонаблюдения и метеопрогнозы.

Управление картой: чтобы увеличить масштаб, щелкните зеленые кнопки с черным крестиком; чтобы уменьшить масштаб, щелкните зеленую кнопку с тире; для просмотра соседних карт щелкайте зеленые стрелки.


METAR-TAF: